Time;durP1;ratioP1;P1;durP2;ratioP2;P2;SDS_P1;SDS_P2;PMS_P1;PMS_P2;Temp;Humidity;BMP_temperature;BMP_pressure;BME280_temperature;BME280_humidity;BME280_pressure;Samples;Min_cycle;Max_cycle;Signal;HPM_P1;HPM_P2
2023/10/11 00:00:34;;;;;;;8.00;1.23;;;;;;;14.19;100.00;100508.38;5075274;28;20077;-76
2023/10/11 00:03:15;;;;;;;2.40;0.93;;;;;;;14.17;100.00;100503.16;5092251;28;20034;-75
2023/10/11 00:05:43;;;;;;;2.15;1.05;;;;;;;14.18;100.00;100509.41;5090858;28;20078;-75
2023/10/11 00:08:13;;;;;;;3.97;1.38;;;;;;;14.17;100.00;100508.56;5075239;28;20371;-75
2023/10/11 00:10:53;;;;;;;0.60;0.60;;;;;;;14.16;100.00;100497.97;5075432;28;20036;-78
2023/10/11 00:13:20;;;;;;;1.85;0.95;;;;;;;14.16;100.00;100501.50;5108485;28;20078;-75
2023/10/11 00:15:49;;;;;;;6.47;1.38;;;;;;;14.10;100.00;100482.56;5075348;28;20101;-75
2023/10/11 00:18:17;;;;;;;1.48;0.75;;;;;;;14.15;100.00;100486.31;5091652;28;20028;-76
2023/10/11 00:20:50;;;;;;;1.52;0.90;;;;;;;14.14;100.00;100506.28;5058478;28;20082;-75
2023/10/11 00:23:19;;;;;;;1.67;1.00;;;;;;;14.15;100.00;100505.22;5091444;28;20106;-75
2023/10/11 00:25:45;;;;;;;5.18;1.10;;;;;;;14.15;100.00;100512.50;5091941;28;20043;-75
2023/10/11 00:28:11;;;;;;;1.77;1.02;;;;;;;14.16;100.00;100511.50;5092185;28;20024;-75
2023/10/11 00:30:40;;;;;;;0.57;0.57;;;;;;;14.17;100.00;100523.97;5108695;28;20036;-75
2023/10/11 00:33:09;;;;;;;4.95;1.98;;;;;;;14.17;100.00;100521.25;5091524;28;20028;-75
2023/10/11 00:35:48;;;;;;;4.43;1.63;;;;;;;14.17;100.00;100522.09;5058980;28;20028;-75
2023/10/11 00:38:21;;;;;;;3.03;1.20;;;;;;;14.17;100.00;100515.84;5090401;28;20032;-75
2023/10/11 00:41:12;;;;;;;3.28;1.73;;;;;;;14.16;100.00;100516.91;5091707;28;20028;-75
2023/10/11 00:43:49;;;;;;;2.42;1.17;;;;;;;14.18;100.00;100521.03;5089187;28;20115;-75
2023/10/11 00:46:18;;;;;;;5.18;2.15;;;;;;;14.16;100.00;100527.72;5075164;28;20036;-75
2023/10/11 00:51:26;;;;;;;1.75;1.10;;;;;;;14.16;100.00;100527.72;5077231;28;20032;-75
2023/10/11 00:53:55;;;;;;;1.15;1.00;;;;;;;14.17;100.00;100521.25;5078739;28;20092;-75
2023/10/11 00:56:31;;;;;;;2.70;1.10;;;;;;;14.17;100.00;100519.38;5062218;28;20028;-75
2023/10/11 00:59:01;;;;;;;5.15;1.33;;;;;;;14.17;100.00;100516.69;5111081;28;20020;-76
2023/10/11 01:01:27;;;;;;;7.43;2.00;;;;;;;14.17;100.00;100523.97;5078493;28;20122;-75
2023/10/11 01:03:55;;;;;;;2.00;1.45;;;;;;;14.17;100.00;100513.16;5078402;28;20503;-75
2023/10/11 01:06:25;;;;;;;4.90;1.58;;;;;;;14.15;100.00;100515.22;5096227;28;20060;-75
2023/10/11 01:08:54;;;;;;;1.95;1.20;;;;;;;14.15;100.00;100496.28;5078421;28;20024;-76
2023/10/11 01:11:21;;;;;;;3.67;1.67;;;;;;;14.13;100.00;100482.13;5095371;28;20032;-75
2023/10/11 01:13:53;;;;;;;4.00;1.92;;;;;;;14.14;100.00;100486.53;5078149;28;20124;-75
2023/10/11 01:16:20;;;;;;;4.50;1.75;;;;;;;14.15;100.00;100490.88;5079096;28;20039;-75
2023/10/11 01:18:49;;;;;;;3.83;1.73;;;;;;;14.14;100.00;100479.25;5094559;28;20157;-75
2023/10/11 01:21:16;;;;;;;2.58;1.27;;;;;;;14.15;100.00;100491.72;5062076;28;20035;-76
2023/10/11 01:23:41;;;;;;;1.92;0.82;;;;;;;14.15;100.00;100499.00;5095039;28;20029;-76
2023/10/11 01:26:08;;;;;;;0.30;0.30;;;;;;;14.15;100.00;100490.88;5061366;28;20055;-76
2023/10/11 01:28:35;;;;;;;0.30;0.30;;;;;;;14.15;100.00;100477.38;5095074;28;20122;-75
2023/10/11 01:31:11;;;;;;;0.55;0.55;;;;;;;14.15;100.00;100480.88;5061311;28;20375;-75
2023/10/11 01:33:44;;;;;;;0.30;0.30;;;;;;;14.15;100.00;100467.38;5111268;28;20032;-75
2023/10/11 01:36:11;;;;;;;0.28;0.28;;;;;;;14.14;100.00;100459.50;5094864;28;20032;-75
2023/10/11 01:38:46;;;;;;;0.30;0.30;;;;;;;14.15;100.00;100459.25;5078068;28;20098;-74
2023/10/11 01:41:27;;;;;;;0.30;0.30;;;;;;;14.15;100.00;100453.03;5094753;28;20024;-75
2023/10/11 01:43:57;;;;;;;0.35;0.35;;;;;;;14.16;100.00;100452.00;5077962;28;20040;-75
2023/10/11 01:46:27;;;;;;;0.30;0.30;;;;;;;14.15;100.00;100444.91;5060852;28;20127;-75
2023/10/11 01:48:54;;;;;;;0.30;0.30;;;;;;;14.16;100.00;100444.72;5111573;28;20020;-75
2023/10/11 01:51:29;;;;;;;0.30;0.30;;;;;;;14.18;100.00;100453.44;5111356;28;20059;-75
2023/10/11 01:53:56;;;;;;;0.30;0.30;;;;;;;14.18;100.00;100450.72;5078292;28;20020;-75
2023/10/11 01:56:25;;;;;;;0.30;0.30;;;;;;;14.19;100.00;100454.28;5044358;28;20060;-75
2023/10/11 01:59:01;;;;;;;0.30;0.30;;;;;;;14.20;100.00;100453.25;5077354;28;20038;-75
2023/10/11 02:01:30;;;;;;;0.30;0.30;;;;;;;14.15;100.00;100434.09;5045230;28;20059;-75
2023/10/11 02:04:00;;;;;;;0.28;0.28;;;;;;;14.19;100.00;100438.91;5110709;28;20099;-75
2023/10/11 02:06:31;;;;;;;0.40;0.40;;;;;;;14.20;100.00;100435.13;5044083;28;20127;-75
2023/10/11 02:08:58;;;;;;;0.30;0.30;;;;;;;14.19;100.00;100433.50;5044694;28;20520;-75
2023/10/11 02:11:29;;;;;;;0.30;0.30;;;;;;;14.23;100.00;100439.31;5094175;28;20028;-75
2023/10/11 02:13:59;;;;;;;0.30;0.30;;;;;;;14.22;100.00;100440.34;5077060;28;20039;-75
2023/10/11 02:16:28;;;;;;;0.20;0.20;;;;;;;14.21;100.00;100441.38;5077010;28;20028;-75
2023/10/11 02:19:03;;;;;;;0.30;0.30;;;;;;;14.20;100.00;100439.72;5044360;28;20101;-75
2023/10/11 02:21:31;;;;;;;0.30;0.30;;;;;;;14.22;100.00;100448.47;5092402;28;20474;-75
2023/10/11 02:23:58;;;;;;;0.30;0.30;;;;;;;14.20;100.00;100445.13;5060461;28;20032;-75
2023/10/11 02:26:36;;;;;;;0.30;0.30;;;;;;;14.21;100.00;100444.94;5076852;28;20032;-75
2023/10/11 02:29:15;;;;;;;0.30;0.30;;;;;;;14.22;100.00;100440.34;5075214;28;20119;-75
2023/10/11 02:31:43;;;;;;;0.32;0.32;;;;;;;14.23;100.00;100445.53;5062365;28;20043;-75
2023/10/11 02:34:15;;;;;;;0.30;0.30;;;;;;;14.24;100.00;100441.81;5076622;28;20028;-75
2023/10/11 02:36:55;;;;;;;0.35;0.35;;;;;;;14.24;100.00;100441.81;5093238;28;20463;-75
2023/10/11 02:39:20;;;;;;;0.35;0.35;;;;;;;14.25;100.00;100448.03;5078172;28;20059;-75
2023/10/11 02:41:47;;;;;;;0.30;0.30;;;;;;;14.28;100.00;100448.44;5060131;28;20417;-76
2023/10/11 02:44:13;;;;;;;0.30;0.30;;;;;;;14.30;100.00;100438.25;5092749;28;20040;-74
2023/10/11 02:46:43;;;;;;;0.30;0.30;;;;;;;14.32;100.00;100434.53;5093201;28;20028;-75
2023/10/11 02:49:21;;;;;;;0.30;0.30;;;;;;;14.33;100.00;100438.91;5093335;28;20089;-75
2023/10/11 02:51:55;;;;;;;0.30;0.30;;;;;;;14.35;100.00;100434.13;5093343;28;20047;-75
2023/10/11 02:54:33;;;;;;;0.30;0.30;;;;;;;14.32;100.00;100429.13;5060590;28;20028;-75
2023/10/11 02:56:59;;;;;;;0.30;0.30;;;;;;;14.36;100.00;100435.78;5093264;28;20032;-75
2023/10/11 02:59:25;;;;;;;0.30;0.30;;;;;;;14.33;100.00;100434.31;5109661;28;20051;-76
2023/10/11 03:02:03;;;;;;;0.30;0.30;;;;;;;14.29;100.00;100428.50;5092085;28;20028;-75
2023/10/11 03:04:29;;;;;;;0.30;0.30;;;;;;;14.30;100.00;100435.56;5044089;28;20050;-75
2023/10/11 03:06:55;;;;;;;0.40;0.40;;;;;;;14.30;100.00;100435.56;5076256;28;20032;-75
2023/10/11 03:09:27;;;;;;;0.30;0.30;;;;;;;14.30;100.00;100435.56;5092419;28;20063;-75
2023/10/11 03:11:56;;;;;;;0.30;0.30;;;;;;;14.29;100.00;100439.31;5076197;28;20036;-75
2023/10/11 03:14:25;;;;;;;0.30;0.30;;;;;;;14.26;100.00;100431.63;5075221;28;20028;-74
2023/10/11 03:16:56;;;;;;;0.30;0.30;;;;;;;14.28;100.00;100431.41;5075867;28;20364;-74
2023/10/11 03:19:25;;;;;;;0.30;0.30;;;;;;;14.31;100.00;100425.56;5093856;28;20437;-74
2023/10/11 03:21:54;;;;;;;0.30;0.30;;;;;;;14.34;100.00;100429.72;5075398;28;20035;-75
2023/10/11 03:24:21;;;;;;;0.30;0.30;;;;;;;14.33;100.00;100428.06;5059285;28;20032;-75
2023/10/11 03:26:48;;;;;;;0.30;0.30;;;;;;;14.33;100.00;100422.66;5042731;28;20465;-74
2023/10/11 03:29:17;;;;;;;0.30;0.30;;;;;;;14.32;100.00;100423.72;5075964;28;20032;-74
2023/10/11 03:31:45;;;;;;;0.30;0.30;;;;;;;14.32;100.00;100426.44;5075348;28;20051;-74
2023/10/11 03:34:11;;;;;;;0.30;0.30;;;;;;;14.29;100.00;100414.97;5092190;28;20028;-76
2023/10/11 03:36:49;;;;;;;0.40;0.40;;;;;;;14.35;100.00;100420.59;5058971;28;20032;-75
2023/10/11 03:39:28;;;;;;;0.30;0.30;;;;;;;14.33;100.00;100423.50;5092514;28;20119;-74
2023/10/11 03:42:07;;;;;;;0.30;0.30;;;;;;;14.35;100.00;100421.41;5043669;28;20056;-74
2023/10/11 03:44:40;;;;;;;0.30;0.30;;;;;;;14.31;100.00;100414.75;5089685;28;20044;-74
2023/10/11 03:47:08;;;;;;;0.38;0.38;;;;;;;14.35;100.00;100426.00;5041879;28;20049;-75
2023/10/11 03:52:30;;;;;;;0.30;0.30;;;;;;;14.36;100.00;100431.19;5059906;28;20036;-76
2023/10/11 03:55:09;;;;;;;0.35;0.35;;;;;;;14.37;100.00;100429.31;5088851;28;20051;-76
2023/10/11 03:57:41;;;;;;;0.30;0.30;;;;;;;14.37;100.00;100430.16;5060278;28;20170;-75
2023/10/11 04:00:46;;;;;;;0.23;0.23;;;;;;;14.35;100.00;100420.59;5075735;28;20035;-76
2023/10/11 04:03:05;;;;;;;0.32;0.32;;;;;;;14.31;100.00;100422.88;5070578;28;20269;-75
2023/10/11 04:05:35;;;;;;;0.35;0.35;;;;;;;14.32;100.00;100416.44;5075748;28;20040;-75
2023/10/11 04:08:19;;;;;;;0.30;0.30;;;;;;;14.28;100.00;100416.00;5109132;28;20024;-76
2023/10/11 04:10:49;;;;;;;0.30;0.30;;;;;;;14.26;100.00;100410.00;5044783;28;20075;-76
2023/10/11 04:13:15;;;;;;;0.40;0.40;;;;;;;14.33;100.00;100407.25;5109127;28;20424;-76
2023/10/11 04:15:49;;;;;;;0.30;0.30;;;;;;;14.22;100.00;100411.44;5075460;28;20037;-75
2023/10/11 04:18:20;;;;;;;0.30;0.30;;;;;;;14.25;100.00;100421.00;5091992;28;20169;-75
2023/10/11 04:20:59;;;;;;;0.30;0.30;;;;;;;14.24;100.00;100420.19;5091361;28;20099;-76
2023/10/11 04:23:35;;;;;;;0.32;0.32;;;;;;;14.21;100.00;100414.34;5090231;28;20489;-76
2023/10/11 04:29:09;;;;;;;0.40;0.40;;;;;;;14.22;100.00;100422.25;5055087;28;20047;-76
2023/10/11 04:32:14;;;;;;;0.40;0.40;;;;;;;14.22;100.00;100416.00;5078273;28;20514;-76
2023/10/11 04:34:32;;;;;;;0.30;0.30;;;;;;;14.11;100.00;100422.88;5087999;28;20097;-76
2023/10/11 04:37:06;;;;;;;0.30;0.30;;;;;;;13.90;100.00;100420.38;5046095;28;20028;-76
2023/10/11 04:39:36;;;;;;;0.30;0.30;;;;;;;13.71;100.00;100420.13;5079658;28;20703;-76
2023/10/11 04:42:03;;;;;;;0.40;0.40;;;;;;;13.58;100.00;100420.91;5095308;28;20039;-76
2023/10/11 04:44:42;;;;;;;0.30;0.30;;;;;;;13.46;100.00;100427.94;5094403;28;20044;-76
2023/10/11 04:47:17;;;;;;;0.40;0.40;;;;;;;13.38;100.00;100423.53;5093983;28;20070;-76
2023/10/11 04:49:45;;;;;;;0.40;0.40;;;;;;;13.36;100.00;100432.88;5095850;28;20032;-76
2023/10/11 04:52:13;;;;;;;0.30;0.30;;;;;;;13.33;100.00;100444.09;5062328;28;20032;-76
2023/10/11 04:54:53;;;;;;;0.30;0.30;;;;;;;13.31;100.00;100441.59;5095234;28;20505;-75
2023/10/11 05:00:21;;;;;;;0.40;0.40;;;;;;;13.07;100.00;100440.22;5050740;28;20054;-76
2023/10/11 05:02:58;;;;;;;0.30;0.30;;;;;;;12.95;100.00;100442.63;5078646;28;20036;-76
2023/10/11 05:05:24;;;;;;;0.30;0.30;;;;;;;12.80;100.00;100439.22;5078361;28;20032;-76
2023/10/11 05:08:05;;;;;;;0.30;0.30;;;;;;;12.70;100.00;100434.19;5078041;28;20057;-76
2023/10/11 05:10:43;;;;;;;0.30;0.30;;;;;;;12.62;100.00;100434.34;5063274;28;20024;-76
2023/10/11 05:13:13;;;;;;;0.30;0.30;;;;;;;12.59;100.00;100433.91;5078447;28;20149;-76
2023/10/11 05:15:47;;;;;;;0.30;0.30;;;;;;;12.48;100.00;100437.97;5079001;28;20027;-76
2023/10/11 05:18:18;;;;;;;0.30;0.30;;;;;;;12.39;100.00;100420.28;5111402;28;20032;-76
2023/10/11 05:20:57;;;;;;;0.40;0.40;;;;;;;12.31;100.00;100419.41;5111862;28;20028;-76
2023/10/11 05:23:33;;;;;;;0.30;0.30;;;;;;;12.21;100.00;100408.09;5046700;28;20032;-76
2023/10/11 05:25:59;;;;;;;0.30;0.30;;;;;;;12.08;100.00;100408.81;5078371;28;20081;-76
2023/10/11 05:28:27;;;;;;;0.30;0.30;;;;;;;12.03;100.00;100394.28;5095029;28;20043;-76
2023/10/11 05:31:44;;;;;;;0.40;0.40;;;;;;;11.99;100.00;100388.44;5077927;28;20055;-76
2023/10/11 05:33:59;;;;;;;0.35;0.35;;;;;;;11.94;100.00;100381.97;5104275;28;20061;-76
2023/10/11 05:52:58;;;;;;;0.40;0.40;;;;;;;11.87;100.00;100393.50;5094473;28;20036;-76
2023/10/11 05:55:24;;;;;;;0.30;0.30;;;;;;;11.87;100.00;100403.47;5060942;28;20375;-76
2023/10/11 05:57:50;;;;;;;0.30;0.30;;;;;;;11.88;100.00;100403.28;5094344;28;20032;-75
2023/10/11 06:00:23;;;;;;;0.40;0.40;;;;;;;11.87;100.00;100400.75;5077376;28;20389;-76
2023/10/11 06:02:51;;;;;;;0.30;0.30;;;;;;;11.89;100.00;100398.72;5077387;28;20478;-75
2023/10/11 06:05:23;;;;;;;0.30;0.30;;;;;;;11.96;100.00;100410.41;5060829;28;20090;-76
2023/10/11 06:08:03;;;;;;;0.30;0.30;;;;;;;11.99;100.00;100407.31;5077507;28;20027;-76
2023/10/11 06:10:35;;;;;;;0.40;0.40;;;;;;;11.96;100.00;100404.16;5094137;28;20036;-76
2023/10/11 06:13:07;;;;;;;0.38;0.38;;;;;;;11.92;100.00;100405.59;5076804;28;20149;-76
2023/10/11 06:15:37;;;;;;;0.30;0.30;;;;;;;11.84;100.00;100401.94;5061563;28;20044;-77
2023/10/11 06:18:05;;;;;;;0.30;0.30;;;;;;;11.84;100.00;100406.50;5076164;28;20467;-77
2023/10/11 06:20:38;;;;;;;0.30;0.30;;;;;;;11.85;100.00;100409.03;5076535;28;20520;-76
2023/10/11 06:23:08;;;;;;;0.40;0.40;;;;;;;11.88;100.00;100408.66;5044977;28;20024;-76
2023/10/11 06:25:59;;;;;;;0.30;0.30;;;;;;;11.94;100.00;100417.00;5076715;28;20028;-76
2023/10/11 06:28:31;;;;;;;0.40;0.40;;;;;;;11.99;100.00;100411.88;5094933;28;20089;-76
2023/10/11 06:31:00;;;;;;;0.30;0.30;;;;;;;12.03;100.00;100415.84;5076349;28;20032;-76
2023/10/11 06:33:27;;;;;;;0.40;0.40;;;;;;;12.06;100.00;100426.22;5076508;28;20054;-76
2023/10/11 06:36:00;;;;;;;0.32;0.32;;;;;;;12.07;100.00;100433.28;5092432;28;20425;-76
2023/10/11 06:38:30;;;;;;;0.40;0.40;;;;;;;12.06;100.00;100431.59;5059838;28;20543;-76
2023/10/11 06:41:36;;;;;;;0.32;0.32;;;;;;;12.00;100.00;100432.38;5060261;28;20036;-76
2023/10/11 06:43:41;;;;;;;0.30;0.30;;;;;;;11.87;100.00;100435.78;5106834;28;20040;-76
2023/10/11 06:46:10;;;;;;;0.40;0.40;;;;;;;11.74;100.00;100441.84;5074415;28;20032;-76
2023/10/11 06:48:35;;;;;;;0.40;0.40;;;;;;;11.64;100.00;100430.53;5073596;28;20028;-76
2023/10/11 06:51:01;;;;;;;0.30;0.30;;;;;;;11.55;100.00;100437.06;5091809;28;20042;-76
2023/10/11 06:53:30;;;;;;;0.30;0.30;;;;;;;11.39;100.00;100432.75;5109650;28;20063;-76
2023/10/11 06:56:00;;;;;;;0.40;0.40;;;;;;;11.29;100.00;100434.91;5043317;28;20032;-76
2023/10/11 06:58:25;;;;;;;0.30;0.30;;;;;;;11.10;100.00;100444.41;5059230;28;20036;-76
2023/10/11 07:00:53;;;;;;;0.30;0.30;;;;;;;10.85;100.00;100447.38;5092954;28;20028;-76
2023/10/11 07:03:26;;;;;;;0.32;0.32;;;;;;;10.68;100.00;100443.19;5060195;28;20051;-76
2023/10/11 07:06:10;;;;;;;0.32;0.32;;;;;;;10.57;100.00;100447.16;5091807;28;20046;-76
2023/10/11 07:08:49;;;;;;;0.40;0.40;;;;;;;10.51;100.00;100451.41;5107924;28;20103;-76
2023/10/11 07:11:40;;;;;;;0.32;0.32;;;;;;;10.46;100.00;100447.63;5060552;28;20470;-76
2023/10/11 07:14:14;;;;;;;0.43;0.43;;;;;;;10.44;100.00;100452.34;5061342;28;20032;-76
2023/10/11 07:16:45;;;;;;;0.40;0.40;;;;;;;10.40;100.00;100456.38;5060144;28;20531;-76
2023/10/11 07:19:15;;;;;;;0.40;0.40;;;;;;;10.31;100.00;100461.84;5092372;28;20055;-76
2023/10/11 07:22:03;;;;;;;0.30;0.30;;;;;;;10.26;100.00;100468.75;5059321;28;20156;-77
2023/10/11 07:24:39;;;;;;;0.40;0.40;;;;;;;10.21;100.00;100471.13;5092675;28;20040;-76
2023/10/11 07:27:09;;;;;;;0.40;0.40;;;;;;;10.16;100.00;100481.59;5090958;28;20036;-76
2023/10/11 07:29:37;;;;;;;0.30;0.30;;;;;;;10.12;100.00;100475.75;5075976;28;20089;-76
2023/10/11 07:32:09;;;;;;;0.40;0.40;;;;;;;10.11;100.00;100477.59;5075384;28;20024;-76
2023/10/11 07:34:42;;;;;;;0.40;0.40;;;;;;;10.07;100.00;100481.66;5091576;28;20028;-76
2023/10/11 07:37:18;;;;;;;0.40;0.40;;;;;;;10.07;100.00;100487.03;5042948;28;20028;-76
2023/10/11 07:39:47;;;;;;;0.32;0.32;;;;;;;10.04;100.00;100482.00;5043614;28;20048;-76
2023/10/11 07:42:18;;;;;;;0.40;0.40;;;;;;;9.99;100.00;100492.47;5042511;28;20078;-76
2023/10/11 07:44:50;;;;;;;0.40;0.40;;;;;;;9.93;100.00;100489.66;5076281;28;20032;-76
2023/10/11 07:47:16;;;;;;;0.43;0.43;;;;;;;9.85;100.00;100486.00;5075078;28;20039;-76
2023/10/11 07:49:42;;;;;;;0.30;0.30;;;;;;;9.82;100.00;100489.06;5058950;28;20032;-76
2023/10/11 07:52:16;;;;;;;0.43;0.43;;;;;;;9.78;100.00;100497.63;5075389;28;20039;-76
2023/10/11 07:54:52;;;;;;;0.40;0.40;;;;;;;9.74;100.00;100496.31;5107135;28;20504;-76
2023/10/11 07:57:19;;;;;;;0.40;0.40;;;;;;;9.74;100.00;100504.34;5075545;28;20127;-76
2023/10/11 07:59:47;;;;;;;0.47;0.47;;;;;;;9.72;100.00;100506.41;5043848;28;20024;-76
2023/10/11 08:02:29;;;;;;;0.40;0.40;;;;;;;9.73;100.00;100508.91;5096271;28;20121;-77
2023/10/11 08:05:00;;;;;;;0.40;0.40;;;;;;;9.67;100.00;100507.75;5112432;28;20069;-75
2023/10/11 08:07:26;;;;;;;0.40;0.40;;;;;;;9.62;100.00;100510.13;5079652;28;20047;-75
2023/10/11 08:09:52;;;;;;;0.30;0.30;;;;;;;9.63;100.00;100508.28;5079027;28;20036;-76
2023/10/11 08:12:21;;;;;;;0.40;0.40;;;;;;;9.63;100.00;100509.13;5096777;28;20028;-75
2023/10/11 08:14:47;;;;;;;0.40;0.40;;;;;;;9.67;100.00;100510.44;5078940;28;20401;-75
2023/10/11 08:17:19;;;;;;;0.40;0.40;;;;;;;9.68;100.00;100512.13;5079073;28;20032;-75
2023/10/11 08:19:46;;;;;;;0.40;0.40;;;;;;;9.71;100.00;100515.47;5078583;28;20032;-76
2023/10/11 08:22:18;;;;;;;0.40;0.40;;;;;;;9.68;100.00;100512.13;5079066;28;20032;-76
2023/10/11 08:25:03;;;;;;;0.40;0.40;;;;;;;9.71;100.00;100513.59;5045638;28;20128;-75
2023/10/11 08:27:35;;;;;;;0.40;0.40;;;;;;;9.72;100.00;100511.78;5076334;28;20036;-73
2023/10/11 08:32:45;;;;;;;0.40;0.40;;;;;;;9.72;100.00;100514.47;5062991;28;20028;-73
2023/10/11 08:35:17;;;;;;;0.40;0.40;;;;;;;9.67;100.00;100523.88;5046480;28;20383;-73
2023/10/11 08:37:52;;;;;;;0.40;0.40;;;;;;;9.66;100.00;100522.22;5078687;28;20032;-73
2023/10/11 08:40:29;;;;;;;0.40;0.40;;;;;;;9.65;100.00;100525.06;5062502;28;20044;-74
2023/10/11 08:43:15;;;;;;;0.40;0.40;;;;;;;9.64;100.00;100520.72;5091134;28;20375;-73
2023/10/11 08:45:44;;;;;;;0.40;0.40;;;;;;;9.64;100.00;100526.91;5078692;28;20039;-73
2023/10/11 08:48:12;;;;;;;0.40;0.40;;;;;;;9.65;100.00;100533.09;5078743;28;20031;-73
2023/10/11 08:50:52;;;;;;;0.40;0.40;;;;;;;9.66;100.00;100535.63;5078741;28;20059;-73
2023/10/11 08:53:37;;;;;;;0.40;0.40;;;;;;;9.66;100.00;100532.94;5076616;28;20094;-72
2023/10/11 08:56:09;;;;;;;0.40;0.40;;;;;;;9.70;100.00;100538.78;5044865;28;20078;-73
2023/10/11 08:58:37;;;;;;;0.40;0.40;;;;;;;9.67;100.00;100525.72;5111616;28;20149;-73
2023/10/11 09:01:03;;;;;;;0.40;0.40;;;;;;;9.68;100.00;100533.59;5045053;28;20581;-74
2023/10/11 09:03:31;;;;;;;0.40;0.40;;;;;;;9.68;100.00;100538.13;5095155;28;20118;-75
2023/10/11 09:06:00;;;;;;;0.40;0.40;;;;;;;9.67;100.00;100534.59;5094097;28;20466;-75
2023/10/11 09:08:31;;;;;;;0.40;0.40;;;;;;;9.64;100.00;100529.59;5045491;28;20131;-74
2023/10/11 09:11:06;;;;;;;0.40;0.40;;;;;;;9.66;100.00;100541.00;5094424;28;20039;-75
2023/10/11 09:13:36;;;;;;;0.40;0.40;;;;;;;9.65;100.00;100533.94;5077542;28;20100;-75
2023/10/11 09:16:08;;;;;;;0.40;0.40;;;;;;;9.64;100.00;100536.81;5077427;28;20426;-75
2023/10/11 09:18:37;;;;;;;0.30;0.30;;;;;;;9.64;100.00;100534.97;5078271;28;20036;-75
2023/10/11 09:21:15;;;;;;;0.30;0.30;;;;;;;9.65;100.00;100527.75;5045156;28;20039;-74
2023/10/11 09:23:48;;;;;;;0.38;0.38;;;;;;;9.66;100.00;100537.47;5061453;28;20123;-75
2023/10/11 09:26:20;;;;;;;0.40;0.40;;;;;;;9.69;100.00;100537.13;5094080;28;20028;-74
2023/10/11 09:29:02;;;;;;;0.47;0.47;;;;;;;9.66;100.00;100527.56;5077320;28;20024;-74
2023/10/11 09:31:32;;;;;;;0.40;0.40;;;;;;;9.68;100.00;100528.25;5045756;28;20472;-74
2023/10/11 09:34:05;;;;;;;0.40;0.40;;;;;;;9.71;100.00;100532.41;5044063;28;20044;-74
2023/10/11 09:36:31;;;;;;;0.40;0.40;;;;;;;9.75;100.00;100527.53;5061203;28;20032;-74
2023/10/11 09:38:58;;;;;;;0.40;0.40;;;;;;;9.74;100.00;100526.69;5094629;28;20032;-74
2023/10/11 09:41:40;;;;;;;0.40;0.40;;;;;;;9.74;100.00;100526.69;5077241;28;20398;-75
2023/10/11 09:44:07;;;;;;;0.40;0.40;;;;;;;9.75;100.00;100532.91;5076719;28;20044;-74
2023/10/11 09:46:34;;;;;;;0.40;0.40;;;;;;;9.72;100.00;100527.88;5093430;28;20470;-74
2023/10/11 09:49:02;;;;;;;0.43;0.43;;;;;;;9.75;100.00;100531.03;5077381;28;20040;-75
2023/10/11 09:51:29;;;;;;;0.40;0.40;;;;;;;9.78;100.00;100519.13;5044129;28;20035;-74
2023/10/11 09:54:01;;;;;;;0.40;0.40;;;;;;;9.82;100.00;100515.91;5093991;28;20035;-75
2023/10/11 09:56:36;;;;;;;0.40;0.40;;;;;;;9.84;100.00;100515.72;5077736;28;20059;-74
2023/10/11 09:59:22;;;;;;;0.40;0.40;;;;;;;9.86;100.00;100521.75;5077060;28;20175;-75
2023/10/11 10:01:56;;;;;;;0.40;0.40;;;;;;;9.91;100.00;100512.16;5076271;28;20071;-76
2023/10/11 10:04:50;;;;;;;0.40;0.40;;;;;;;9.98;100.00;100517.66;5075197;28;20028;-74
2023/10/11 10:08:07;;;;;;;0.40;0.40;;;;;;;10.02;100.00;100516.28;5075616;28;20024;-74
2023/10/11 10:10:07;;;;;;;0.40;0.40;;;;;;;10.04;100.00;100511.56;5076756;28;20043;-73
2023/10/11 10:12:55;;;;;;;0.40;0.40;;;;;;;10.11;100.00;100515.22;5044069;28;20406;-73
2023/10/11 10:15:23;;;;;;;0.40;0.40;;;;;;;10.08;100.00;100512.91;5093753;28;20081;-75
2023/10/11 10:18:00;;;;;;;0.47;0.47;;;;;;;10.02;100.00;100518.13;5044377;28;20039;-75
2023/10/11 10:20:50;;;;;;;0.40;0.40;;;;;;;9.99;100.00;100522.00;5077086;28;20028;-75
2023/10/11 10:23:20;;;;;;;0.40;0.40;;;;;;;10.03;100.00;100522.47;5093941;28;20039;-74
2023/10/11 10:26:06;;;;;;;0.40;0.40;;;;;;;10.01;100.00;100521.84;5076870;28;20544;-76
2023/10/11 10:28:35;;;;;;;0.50;0.50;;;;;;;10.03;100.00;100525.16;5076694;28;20042;-75
2023/10/11 10:31:10;;;;;;;0.40;0.40;;;;;;;10.02;100.00;100520.81;5093970;28;20470;-74
2023/10/11 10:33:41;;;;;;;0.40;0.40;;;;;;;9.96;100.00;100533.09;5109851;28;20078;-75
2023/10/11 10:36:20;;;;;;;0.40;0.40;;;;;;;9.89;100.00;100529.44;5076755;28;20042;-75
2023/10/11 10:39:36;;;;;;;0.40;0.40;;;;;;;9.82;100.00;100523.97;5076787;28;20036;-75
2023/10/11 10:42:12;;;;;;;0.40;0.40;;;;;;;9.75;100.00;100533.72;5062886;28;20035;-75
2023/10/11 10:44:52;;;;;;;0.40;0.40;;;;;;;9.73;100.00;100524.19;5076533;28;20040;-75
2023/10/11 10:47:26;;;;;;;0.40;0.40;;;;;;;9.68;100.00;100533.59;5093063;28;20070;-75
2023/10/11 10:49:54;;;;;;;0.43;0.43;;;;;;;9.64;100.00;100547.56;5076654;28;20028;-75
2023/10/11 10:52:30;;;;;;;0.40;0.40;;;;;;;9.56;100.00;100551.09;5076135;28;20488;-75
2023/10/11 10:55:07;;;;;;;0.40;0.40;;;;;;;9.51;100.00;100556.16;5091898;28;20032;-75
2023/10/11 10:57:39;;;;;;;0.40;0.40;;;;;;;9.50;100.00;100554.50;5044399;28;20047;-75
2023/10/11 11:00:21;;;;;;;0.40;0.40;;;;;;;9.46;100.00;100561.22;5076412;28;20051;-75
2023/10/11 11:02:47;;;;;;;0.40;0.40;;;;;;;9.45;100.00;100559.53;5045147;28;20046;-75
2023/10/11 11:25:34;;;;;;;0.40;0.40;;;;;;;9.31;100.00;100595.13;5043054;28;20802;-79
2023/10/11 11:28:15;;;;;;;0.47;0.47;;;;;;;9.28;100.00;100595.47;5008401;28;20033;-78
2023/10/11 11:30:52;;;;;;;0.40;0.40;;;;;;;9.24;100.00;100598.50;5015532;28;20037;-78
2023/10/11 11:33:29;;;;;;;0.50;0.50;;;;;;;9.27;100.00;100601.84;5060802;28;20038;-79
2023/10/11 11:35:55;;;;;;;0.50;0.50;;;;;;;9.25;100.00;100602.03;5028401;28;20033;-79
2023/10/11 11:38:24;;;;;;;0.50;0.50;;;;;;;9.23;100.00;100594.16;5010855;28;20527;-80
2023/10/11 11:41:04;;;;;;;0.50;0.50;;;;;;;9.24;100.00;100581.56;5012403;28;20464;-79
2023/10/11 11:43:38;;;;;;;0.50;0.50;;;;;;;9.22;100.00;100589.78;5029101;28;20120;-80
2023/10/11 11:46:04;;;;;;;0.40;0.40;;;;;;;9.23;100.00;100580.75;5045445;28;20096;-80
2023/10/11 11:48:40;;;;;;;0.40;0.40;;;;;;;9.32;100.00;100591.47;5028976;28;20132;-80
2023/10/11 11:51:13;;;;;;;0.50;0.50;;;;;;;9.45;100.00;100608.69;5011023;28;20037;-80
2023/10/11 11:53:43;;;;;;;0.50;0.50;;;;;;;9.46;100.00;100615.72;5012580;28;20044;-80
2023/10/11 11:56:14;;;;;;;0.40;0.40;;;;;;;9.44;100.00;100612.34;5011318;28;20445;-81
2023/10/11 11:58:56;;;;;;;0.40;0.40;;;;;;;9.41;100.00;100606.50;4999781;28;20061;-81
2023/10/11 12:01:26;;;;;;;0.40;0.40;;;;;;;9.31;100.00;100600.50;5028885;28;20029;-81
2023/10/11 12:03:54;;;;;;;0.40;0.40;;;;;;;9.33;100.00;100606.53;5027109;28;20125;-81
2023/10/11 12:06:23;;;;;;;0.50;0.50;;;;;;;9.34;100.00;100617.09;5012379;28;20025;-80
2023/10/11 12:08:58;;;;;;;0.50;0.50;;;;;;;9.34;100.00;100619.78;5028523;28;20021;-80
2023/10/11 12:11:30;;;;;;;0.40;0.40;;;;;;;9.32;100.00;100621.81;5028356;28;20040;-80
2023/10/11 12:13:58;;;;;;;0.50;0.50;;;;;;;9.24;100.00;100617.28;5028006;28;20042;-82
2023/10/11 12:16:26;;;;;;;0.40;0.40;;;;;;;9.00;100.00;100609.28;5043784;28;20480;-81
2023/10/11 12:18:59;;;;;;;0.50;0.50;;;;;;;8.79;100.00;100601.75;5012273;28;20629;-80
2023/10/11 12:21:28;;;;;;;0.50;0.50;;;;;;;8.57;100.00;100603.22;5012418;28;20045;-79
2023/10/11 12:23:54;;;;;;;0.40;0.40;;;;;;;8.46;100.00;100596.34;5043174;28;20038;-79
2023/10/11 12:26:20;;;;;;;0.40;0.40;;;;;;;8.37;100.00;100592.81;5015418;28;20459;-81
2023/10/11 12:28:49;;;;;;;0.40;0.40;;;;;;;8.31;100.00;100598.00;5014770;28;20494;-79
2023/10/11 12:31:16;;;;;;;0.40;0.40;;;;;;;8.30;100.00;100601.66;4995426;28;20495;-79
2023/10/11 12:33:43;;;;;;;0.40;0.40;;;;;;;8.28;100.00;100588.47;5010814;28;20436;-80